createdAt,value
2018-09-06T00:01:10.223Z,22.70
2018-09-06T00:03:37.593Z,17.40
2018-09-06T00:06:04.738Z,20.13
2018-09-06T00:08:31.777Z,18.27
2018-09-06T00:10:58.790Z,16.37
2018-09-06T00:13:25.795Z,17.80
2018-09-06T00:15:52.769Z,20.37
2018-09-06T00:18:20.286Z,19.03
2018-09-06T00:20:47.281Z,20.30
2018-09-06T00:23:14.288Z,21.53
2018-09-06T00:25:41.516Z,20.03
2018-09-06T00:28:08.484Z,18.13
2018-09-06T00:30:35.484Z,19.87
2018-09-06T00:33:02.474Z,24.90
2018-09-06T00:35:29.467Z,18.60
2018-09-06T00:37:56.415Z,21.40
2018-09-06T00:40:23.719Z,19.33
2018-09-06T00:42:50.703Z,20.83
2018-09-06T00:45:17.778Z,24.93
2018-09-06T00:47:45.158Z,21.83
2018-09-06T00:50:17.278Z,19.73
2018-09-06T00:52:45.123Z,19.33
2018-09-06T00:55:12.111Z,18.37
2018-09-06T00:57:39.070Z,24.90
2018-09-06T01:00:06.336Z,18.90
2018-09-06T01:02:33.362Z,21.77
2018-09-06T01:05:00.414Z,23.60
2018-09-06T01:07:27.689Z,20.60
2018-09-06T01:09:54.642Z,22.30
2018-09-06T01:12:21.597Z,32.60
2018-09-06T01:14:48.615Z,21.67
2018-09-06T01:17:15.588Z,27.30
2018-09-06T01:19:42.581Z,21.43
2018-09-06T01:22:09.858Z,20.20
2018-09-06T01:24:37.155Z,21.13
2018-09-06T01:27:04.320Z,21.70
2018-09-06T01:29:31.632Z,21.30
2018-09-06T01:31:58.840Z,21.13
2018-09-06T01:34:25.870Z,19.47
2018-09-06T01:36:53.288Z,23.53
2018-09-06T01:39:20.219Z,24.87
2018-09-06T01:41:47.310Z,22.53
2018-09-06T01:44:14.260Z,20.40
2018-09-06T01:46:41.208Z,22.83
2018-09-06T01:49:08.434Z,22.23
2018-09-06T01:51:35.998Z,23.03
2018-09-06T01:54:03.146Z,24.10
2018-09-06T01:56:30.651Z,21.37
2018-09-06T01:58:57.913Z,30.67
2018-09-06T02:01:24.929Z,27.90
2018-09-06T02:03:52.223Z,24.80
2018-09-06T02:06:19.494Z,23.33
2018-09-06T02:08:47.286Z,19.77
2018-09-06T02:11:14.249Z,36.20
2018-09-06T02:13:41.237Z,20.83
2018-09-06T02:16:08.156Z,24.57
2018-09-06T02:18:35.176Z,23.63
2018-09-06T02:21:02.650Z,25.50
2018-09-06T02:23:29.990Z,25.43
2018-09-06T02:25:57.035Z,26.17
2018-09-06T02:28:24.467Z,25.80
2018-09-06T02:30:51.562Z,23.70
2018-09-06T02:33:18.802Z,22.20
2018-09-06T02:35:45.819Z,23.47
2018-09-06T02:38:12.886Z,24.03
2018-09-06T02:40:40.171Z,24.67
2018-09-06T02:43:09.248Z,21.80
2018-09-06T02:45:36.202Z,24.13
2018-09-06T02:48:03.187Z,24.07
2018-09-06T02:50:36.229Z,26.17
2018-09-06T02:53:03.298Z,21.90
2018-09-06T02:55:30.314Z,23.70
2018-09-06T02:57:58.358Z,26.93
2018-09-06T03:00:31.582Z,26.07
2018-09-06T03:02:58.601Z,22.10
2018-09-06T03:05:26.343Z,28.77
2018-09-06T03:07:54.534Z,25.67
2018-09-06T03:10:22.483Z,21.80
2018-09-06T03:12:49.952Z,26.37
2018-09-06T03:15:16.954Z,25.53
2018-09-06T03:17:44.255Z,34.93
2018-09-06T03:20:11.271Z,27.30
2018-09-06T03:22:38.552Z,32.63
2018-09-06T03:25:05.746Z,24.63
2018-09-06T03:27:32.811Z,25.60
2018-09-06T03:29:59.799Z,22.90
2018-09-06T03:32:26.794Z,27.00
2018-09-06T03:34:53.800Z,40.83
2018-09-06T03:37:21.001Z,25.13
2018-09-06T03:39:48.355Z,28.00
2018-09-06T03:42:15.322Z,26.13
2018-09-06T03:44:42.359Z,26.70
2018-09-06T03:47:09.358Z,27.20
2018-09-06T03:49:36.389Z,30.57
2018-09-06T03:52:03.348Z,23.70
2018-09-06T03:54:30.633Z,28.47
2018-09-06T03:56:57.677Z,29.40
2018-09-06T03:59:24.885Z,24.47
2018-09-06T04:01:52.225Z,32.43
2018-09-06T04:04:19.192Z,28.90
2018-09-06T04:06:46.257Z,31.60
2018-09-06T04:09:13.384Z,27.10
2018-09-06T04:11:40.344Z,30.33
2018-09-06T04:14:07.352Z,33.10
2018-09-06T04:16:35.452Z,28.63
2018-09-06T04:19:02.442Z,28.77
2018-09-06T04:21:29.447Z,32.33
2018-09-06T04:23:56.770Z,27.97
2018-09-06T04:26:23.815Z,31.70
2018-09-06T04:28:50.791Z,33.50
2018-09-06T04:31:17.955Z,31.50
2018-09-06T04:33:45.469Z,29.50
2018-09-06T04:36:12.510Z,32.90
2018-09-06T04:38:39.453Z,34.10
2018-09-06T04:41:06.532Z,38.43
2018-09-06T04:43:33.487Z,33.47
2018-09-06T04:46:00.434Z,32.73
2018-09-06T04:48:27.394Z,34.23
2018-09-06T04:50:54.363Z,35.60
2018-09-06T04:53:21.676Z,31.47
2018-09-06T04:55:48.644Z,40.20
2018-09-06T04:58:15.655Z,39.50
2018-09-06T05:00:43.030Z,41.47
2018-09-06T05:03:10.052Z,36.40
2018-09-06T05:05:37.145Z,39.73
2018-09-06T05:08:04.184Z,35.00
2018-09-06T05:10:31.254Z,43.30
2018-09-06T05:12:58.255Z,37.20
2018-09-06T05:15:25.537Z,32.37
2018-09-06T05:17:52.534Z,36.90
2018-09-06T05:20:19.572Z,39.50
2018-09-06T05:22:46.844Z,42.20
2018-09-06T05:25:13.818Z,31.03
2018-09-06T05:27:40.865Z,37.27
2018-09-06T05:30:08.089Z,38.23
2018-09-06T05:32:35.135Z,32.10
2018-09-06T05:35:02.145Z,41.00
2018-09-06T05:37:29.491Z,39.70
2018-09-06T05:39:56.491Z,34.17
2018-09-06T05:42:23.505Z,35.23
2018-09-06T05:44:51.089Z,39.53
2018-09-06T05:47:18.066Z,33.40
2018-09-06T05:49:45.040Z,36.93
2018-09-06T05:52:12.028Z,33.70
2018-09-06T05:57:13.003Z,36.90
2018-09-06T05:59:40.529Z,32.97
2018-09-06T06:02:07.464Z,32.70
2018-09-06T06:04:34.457Z,39.30
2018-09-06T06:07:01.490Z,36.93
2018-09-06T06:09:28.479Z,32.10
2018-09-06T06:11:55.853Z,34.23
2018-09-06T06:14:29.847Z,37.73
2018-09-06T06:16:56.876Z,30.50
2018-09-06T06:19:23.897Z,30.67
2018-09-06T06:21:50.916Z,46.23
2018-09-06T06:24:18.225Z,35.00
2018-09-06T06:26:45.194Z,30.30
2018-09-06T06:29:12.246Z,29.90
2018-09-06T06:31:39.594Z,31.57
2018-09-06T06:34:06.677Z,35.43
2018-09-06T06:36:33.621Z,33.20
2018-09-06T06:39:00.925Z,32.40
2018-09-06T06:41:27.905Z,31.53
2018-09-06T06:43:54.900Z,31.70
2018-09-06T06:46:21.882Z,31.20
2018-09-06T06:48:48.883Z,35.70
2018-09-06T06:51:15.936Z,39.30
2018-09-06T06:53:42.925Z,33.43
2018-09-06T06:56:09.882Z,34.90
2018-09-06T06:58:37.027Z,38.10
2018-09-06T07:01:04.476Z,34.00
2018-09-06T07:03:31.470Z,37.77
2018-09-06T07:05:58.543Z,38.87
2018-09-06T07:08:25.863Z,32.40
2018-09-06T07:10:52.849Z,34.00
2018-09-06T07:13:19.822Z,38.00
2018-09-06T07:15:46.856Z,32.03
2018-09-06T07:18:13.956Z,33.60
2018-09-06T07:20:41.033Z,36.50
2018-09-06T07:23:08.531Z,32.83
2018-09-06T07:25:35.638Z,35.90
2018-09-06T07:28:02.794Z,32.53
2018-09-06T07:30:30.237Z,32.30
2018-09-06T07:32:57.332Z,34.87
2018-09-06T07:35:24.598Z,35.13
2018-09-06T07:37:51.578Z,34.07
2018-09-06T07:40:18.679Z,30.97
2018-09-06T07:42:45.794Z,37.03
2018-09-06T07:45:12.935Z,36.47
2018-09-06T07:47:40.008Z,27.50
2018-09-06T07:50:07.130Z,36.63
2018-09-06T07:52:34.243Z,27.80
2018-09-06T07:55:01.325Z,41.20
2018-09-06T07:57:28.709Z,24.80
2018-09-06T07:59:56.208Z,22.80
2018-09-06T08:02:23.310Z,23.70
2018-09-06T08:04:50.418Z,34.43
2018-09-06T08:07:17.550Z,30.63
2018-09-06T08:09:44.638Z,25.20
2018-09-06T08:12:11.853Z,23.60
2018-09-06T08:14:39.178Z,23.77
2018-09-06T08:17:06.346Z,26.30
2018-09-06T08:19:33.486Z,22.50
2018-09-06T08:22:00.940Z,22.40
2018-09-06T08:24:28.069Z,24.13
2018-09-06T08:26:55.258Z,23.60
2018-09-06T08:29:22.736Z,34.00
2018-09-06T08:31:49.841Z,20.03
2018-09-06T08:34:16.925Z,18.20
2018-09-06T08:36:44.080Z,20.87
2018-09-06T08:39:11.485Z,21.70
2018-09-06T08:41:39.257Z,23.63
2018-09-06T08:44:06.675Z,26.57
2018-09-06T08:46:35.314Z,22.30
2018-09-06T08:49:02.485Z,21.83
2018-09-06T08:51:29.952Z,21.10
2018-09-06T08:53:56.976Z,16.80
2018-09-06T08:56:24.239Z,17.07
2018-09-06T08:58:51.633Z,23.43
2018-09-06T09:01:24.774Z,18.37
2018-09-06T09:03:52.181Z,16.53
2018-09-06T09:06:19.473Z,16.33
2018-09-06T09:08:46.610Z,18.03
2018-09-06T09:11:13.946Z,22.20
2018-09-06T09:13:41.009Z,17.13
2018-09-06T09:16:08.083Z,15.43
2018-09-06T09:18:35.189Z,17.87
2018-09-06T09:21:02.243Z,20.60
2018-09-06T09:23:29.280Z,14.37
2018-09-06T09:25:56.851Z,17.83
2018-09-06T09:28:23.887Z,17.13
2018-09-06T09:30:50.925Z,18.73
2018-09-06T09:33:18.293Z,18.10
2018-09-06T09:35:45.365Z,18.77
2018-09-06T09:38:12.432Z,16.03
2018-09-06T09:40:39.917Z,19.77
2018-09-06T09:43:07.092Z,18.97
2018-09-06T09:45:34.274Z,25.97
2018-09-06T09:48:01.704Z,17.63
2018-09-06T09:52:55.348Z,18.53
2018-09-06T09:55:22.751Z,19.63
2018-09-06T09:57:49.817Z,16.83
2018-09-06T10:00:21.526Z,15.67
2018-09-06T10:02:54.529Z,20.60
2018-09-06T10:05:27.498Z,13.60
2018-09-06T10:07:55.257Z,14.50
2018-09-06T10:10:22.301Z,16.10
2018-09-06T10:12:49.320Z,16.73
2018-09-06T10:15:16.767Z,18.70
2018-09-06T10:17:43.829Z,13.07
2018-09-06T10:20:10.888Z,21.80
2018-09-06T10:22:38.393Z,13.57
2018-09-06T10:25:05.423Z,17.70
2018-09-06T10:27:32.544Z,14.50
2018-09-06T10:29:59.818Z,17.63
2018-09-06T10:32:26.975Z,21.53
2018-09-06T10:34:54.049Z,15.17
2018-09-06T10:37:21.362Z,15.63
2018-09-06T10:39:48.400Z,17.33
2018-09-06T10:42:15.444Z,15.50
2018-09-06T10:44:42.477Z,16.50
2018-09-06T10:47:09.544Z,21.63
2018-09-06T10:49:36.555Z,11.00
2018-09-06T10:52:04.035Z,17.10
2018-09-06T10:54:31.137Z,21.60
2018-09-06T10:56:58.184Z,15.53
2018-09-06T10:59:25.571Z,13.80
2018-09-06T11:01:52.616Z,15.77
2018-09-06T11:04:19.701Z,15.57
2018-09-06T11:06:47.034Z,15.23
2018-09-06T11:09:14.133Z,14.17
2018-09-06T11:11:41.216Z,16.90
2018-09-06T11:14:08.678Z,14.13
2018-09-06T11:16:35.868Z,13.47
2018-09-06T11:19:02.933Z,17.30
2018-09-06T11:21:30.035Z,15.57
2018-09-06T11:23:57.113Z,20.53
2018-09-06T11:26:24.181Z,15.60
2018-09-06T11:28:51.505Z,17.13
2018-09-06T11:31:18.570Z,18.40
2018-09-06T11:33:45.629Z,16.83
2018-09-06T11:36:13.030Z,15.80
2018-09-06T11:38:40.186Z,15.03
2018-09-06T11:41:07.298Z,13.87
2018-09-06T11:43:34.763Z,18.10
2018-09-06T11:46:01.800Z,17.13
2018-09-06T11:48:28.896Z,12.77
2018-09-06T11:50:56.454Z,19.20
2018-09-06T11:53:23.628Z,12.90
2018-09-06T11:55:50.737Z,15.20
2018-09-06T11:58:18.163Z,17.00
2018-09-06T12:00:45.300Z,17.07
2018-09-06T12:03:12.425Z,14.60
2018-09-06T12:05:39.509Z,13.43
2018-09-06T12:08:06.647Z,18.23
2018-09-06T12:10:33.705Z,21.83
2018-09-06T12:13:01.296Z,15.07
2018-09-06T12:15:28.407Z,13.90
2018-09-06T12:17:55.496Z,15.80
2018-09-06T12:20:22.933Z,13.77
2018-09-06T12:22:50.026Z,14.20
2018-09-06T12:25:17.154Z,10.87
2018-09-06T12:27:44.483Z,12.90
2018-09-06T12:30:11.533Z,11.60
2018-09-06T12:32:38.615Z,16.27
2018-09-06T12:35:06.025Z,16.20
2018-09-06T12:37:33.202Z,14.40
2018-09-06T12:40:00.274Z,23.13
2018-09-06T12:42:27.696Z,13.53
2018-09-06T12:44:54.748Z,13.70
2018-09-06T12:47:21.814Z,12.97
2018-09-06T12:49:48.873Z,13.17
2018-09-06T12:52:15.903Z,17.30
2018-09-06T12:54:42.997Z,20.63
2018-09-06T12:57:13.548Z,20.20
2018-09-06T12:59:40.626Z,18.77
2018-09-06T13:02:07.728Z,21.07
2018-09-06T13:04:35.072Z,17.03
2018-09-06T13:07:02.148Z,23.63
2018-09-06T13:09:29.308Z,15.40
2018-09-06T13:11:56.399Z,17.10
2018-09-06T13:14:23.493Z,15.23
2018-09-06T13:16:50.577Z,14.30
2018-09-06T13:19:17.686Z,18.30
2018-09-06T13:21:44.789Z,15.13
2018-09-06T13:24:11.858Z,20.37
2018-09-06T13:26:38.943Z,15.10
2018-09-06T13:29:06.054Z,21.10
2018-09-06T13:31:33.097Z,19.20
2018-09-06T13:34:00.434Z,19.30
2018-09-06T13:36:27.524Z,12.70
2018-09-06T13:38:54.650Z,15.70
2018-09-06T13:41:22.053Z,16.63
2018-09-06T13:43:49.155Z,16.40
2018-09-06T13:46:16.239Z,11.03
2018-09-06T13:48:43.318Z,13.07
2018-09-06T13:51:10.389Z,15.53
2018-09-06T13:53:37.461Z,11.73
2018-09-06T13:56:04.805Z,14.13
2018-09-06T13:58:32.121Z,12.43
2018-09-06T14:00:59.189Z,12.57
2018-09-06T14:03:26.558Z,9.33
2018-09-06T14:05:53.621Z,12.37
2018-09-06T14:08:20.643Z,14.37
2018-09-06T14:10:47.752Z,9.50
2018-09-06T14:13:14.847Z,14.00
2018-09-06T14:15:41.958Z,15.80
2018-09-06T14:18:09.077Z,14.53
2018-09-06T14:28:50.593Z,13.43
2018-09-06T14:31:17.974Z,12.63
2018-09-06T14:33:45.090Z,12.57
2018-09-06T14:36:12.487Z,12.50
2018-09-06T14:38:39.642Z,13.20
2018-09-06T14:41:06.682Z,17.90
2018-09-06T14:43:33.840Z,18.60
2018-09-06T14:46:00.937Z,19.00
2018-09-06T14:48:28.033Z,16.33
2018-09-06T14:50:55.783Z,19.00
2018-09-06T14:53:23.053Z,20.73
2018-09-06T14:55:50.195Z,19.83
2018-09-06T14:58:17.337Z,14.23
2018-09-06T15:00:44.555Z,15.40
2018-09-06T15:03:11.676Z,16.73
2018-09-06T15:05:38.823Z,19.67
2018-09-06T15:08:06.018Z,14.40
2018-09-06T15:10:33.041Z,21.50
2018-09-06T15:13:00.488Z,21.20
2018-09-06T15:15:27.617Z,15.27
2018-09-06T15:17:54.677Z,12.53
2018-09-06T15:20:21.799Z,18.00
2018-09-06T15:22:48.947Z,15.97
2018-09-06T15:25:16.032Z,14.20
2018-09-06T15:27:43.492Z,14.70
2018-09-06T15:30:10.537Z,17.80
2018-09-06T15:32:37.654Z,14.20
2018-09-06T15:35:05.838Z,12.40
2018-09-06T15:37:32.933Z,18.63
2018-09-06T15:40:00.083Z,14.67
2018-09-06T15:42:27.136Z,14.17
2018-09-06T15:44:54.191Z,17.47
2018-09-06T15:47:21.303Z,18.00
2018-09-06T15:49:48.727Z,13.60
2018-09-06T15:52:15.844Z,16.07
2018-09-06T15:54:42.878Z,31.73
2018-09-06T15:57:10.218Z,17.80
2018-09-06T15:59:37.338Z,17.13
2018-09-06T16:02:04.484Z,18.93
2018-09-06T16:04:31.539Z,17.00
2018-09-06T16:06:58.526Z,21.13
2018-09-06T16:09:25.559Z,17.60
2018-09-06T16:11:53.043Z,20.70
2018-09-06T16:14:20.133Z,18.30
2018-09-06T16:16:47.239Z,17.43
2018-09-06T16:19:17.342Z,18.53
2018-09-06T16:21:44.590Z,19.87
2018-09-06T16:24:11.842Z,17.20
2018-09-06T16:26:38.966Z,17.67
2018-09-06T16:29:06.064Z,19.43
2018-09-06T16:31:33.167Z,18.10
2018-09-06T16:34:00.557Z,19.07
2018-09-06T16:36:27.604Z,19.67
2018-09-06T16:38:54.664Z,20.50
2018-09-06T16:41:22.092Z,17.50
2018-09-06T16:43:49.202Z,17.00
2018-09-06T16:46:16.315Z,29.10
2018-09-06T16:48:44.141Z,16.90
2018-09-06T16:51:13.068Z,17.83
2018-09-06T16:53:40.289Z,20.60
2018-09-06T16:56:07.380Z,18.33
2018-09-06T16:58:34.481Z,22.33
2018-09-06T17:01:01.600Z,21.33
2018-09-06T17:03:29.022Z,19.33
2018-09-06T17:05:56.135Z,16.30
2018-09-06T17:08:23.274Z,16.00
2018-09-06T17:10:50.875Z,16.90
2018-09-06T17:13:18.048Z,18.87
2018-09-06T17:15:45.143Z,21.60
2018-09-06T17:18:12.256Z,17.87
2018-09-06T17:20:39.332Z,22.10
2018-09-06T17:23:06.427Z,16.03
2018-09-06T17:25:33.804Z,20.43
2018-09-06T17:28:00.965Z,19.00
2018-09-06T17:30:28.110Z,18.47
2018-09-06T17:32:55.695Z,20.93
2018-09-06T17:35:22.680Z,21.47
2018-09-06T17:37:49.819Z,25.20
2018-09-06T17:40:16.895Z,19.87
2018-09-06T17:42:44.140Z,21.80
2018-09-06T17:45:11.195Z,21.60
2018-09-06T17:47:38.640Z,18.07
2018-09-06T17:50:05.774Z,16.53
2018-09-06T17:52:32.870Z,17.03
2018-09-06T17:55:00.368Z,20.30
2018-09-06T17:57:34.136Z,17.47
2018-09-06T18:00:01.345Z,13.70
2018-09-06T18:02:28.404Z,18.53
2018-09-06T18:04:55.487Z,16.20
2018-09-06T18:07:22.901Z,19.23
2018-09-06T18:09:50.066Z,17.90
2018-09-06T18:12:17.139Z,18.27
2018-09-06T18:14:44.516Z,20.97
2018-09-06T18:17:11.498Z,14.90
2018-09-06T18:19:38.445Z,20.43
2018-09-06T18:22:05.919Z,17.00
2018-09-06T18:24:32.947Z,19.30
2018-09-06T18:26:59.999Z,17.67
2018-09-06T18:29:27.332Z,20.03
2018-09-06T18:31:54.371Z,20.63
2018-09-06T18:34:21.355Z,19.40
2018-09-06T18:36:48.662Z,22.60
2018-09-06T18:39:15.613Z,20.10
2018-09-06T18:41:42.565Z,17.20
2018-09-06T18:44:09.669Z,23.33
2018-09-06T18:46:36.579Z,15.83
2018-09-06T18:49:03.571Z,26.17
2018-09-06T18:51:30.927Z,34.37
2018-09-06T18:53:57.869Z,19.13
2018-09-06T18:56:25.002Z,24.20
2018-09-06T18:58:52.372Z,15.27
2018-09-06T19:01:19.488Z,18.83
2018-09-06T19:03:46.558Z,19.27
2018-09-06T19:06:13.587Z,17.30
2018-09-06T19:08:40.567Z,21.67
2018-09-06T19:11:07.673Z,23.70
2018-09-06T19:13:35.121Z,18.37
2018-09-06T19:16:02.197Z,19.40
2018-09-06T19:18:29.197Z,19.87
2018-09-06T19:20:56.584Z,25.57
2018-09-06T19:23:23.567Z,17.87
2018-09-06T19:25:50.806Z,17.50
2018-09-06T19:28:18.402Z,20.60
2018-09-06T19:30:45.418Z,19.03
2018-09-06T19:33:12.440Z,19.97
2018-09-06T19:35:39.882Z,22.43
2018-09-06T19:38:06.854Z,24.03
2018-09-06T19:40:33.966Z,18.60
2018-09-06T19:43:00.998Z,18.30
2018-09-06T19:45:27.936Z,20.17
2018-09-06T19:47:54.902Z,17.03
2018-09-06T19:50:22.203Z,22.77
2018-09-06T19:52:49.497Z,19.30
2018-09-06T19:55:16.911Z,25.67
2018-09-06T19:57:43.914Z,20.03
2018-09-06T20:00:10.989Z,19.90
2018-09-06T20:02:38.039Z,17.00
2018-09-06T20:05:05.260Z,19.13
2018-09-06T20:07:32.233Z,22.33
2018-09-06T20:09:59.248Z,17.50
2018-09-06T20:12:26.528Z,19.17
2018-09-06T20:14:53.466Z,23.50
2018-09-06T20:17:20.542Z,18.13
2018-09-06T20:19:47.811Z,23.63
2018-09-06T20:22:14.830Z,16.70
2018-09-06T20:24:41.881Z,19.27
2018-09-06T20:27:09.563Z,19.83
2018-09-06T20:29:36.847Z,18.67
2018-09-06T20:32:03.893Z,20.20
2018-09-06T20:34:30.918Z,16.40
2018-09-06T20:36:58.261Z,21.67
2018-09-06T20:39:25.310Z,22.60
2018-09-06T20:41:52.738Z,18.10
2018-09-06T20:44:19.785Z,17.60
2018-09-06T20:46:46.789Z,19.97
2018-09-06T20:49:13.967Z,27.77
2018-09-06T20:51:40.983Z,20.70
2018-09-06T20:54:08.266Z,23.80
2018-09-06T20:56:35.484Z,19.67
2018-09-06T20:59:02.496Z,24.03
2018-09-06T21:01:29.596Z,20.40
2018-09-06T21:03:56.921Z,20.83
2018-09-06T21:06:23.887Z,22.80
2018-09-06T21:08:50.891Z,20.10
2018-09-06T21:11:18.465Z,19.40
2018-09-06T21:13:45.447Z,21.40
2018-09-06T21:16:12.663Z,16.17
2018-09-06T21:18:39.635Z,23.37
2018-09-06T21:21:06.622Z,18.60
2018-09-06T21:23:33.632Z,18.33
2018-09-06T21:26:00.871Z,20.90
2018-09-06T21:28:27.871Z,18.63
2018-09-06T21:30:54.959Z,18.40
2018-09-06T21:33:22.366Z,21.13
2018-09-06T21:35:49.511Z,20.90
2018-09-06T21:38:16.486Z,22.10
2018-09-06T21:40:43.757Z,19.90
2018-09-06T21:43:10.737Z,18.80
2018-09-06T21:45:37.737Z,19.77
2018-09-06T21:48:04.866Z,22.73
2018-09-06T21:50:31.844Z,15.87
2018-09-06T21:52:58.779Z,21.40
2018-09-06T21:55:26.112Z,20.20
2018-09-06T21:57:53.132Z,21.83
2018-09-06T22:00:20.117Z,21.80
2018-09-06T22:02:53.157Z,19.20
2018-09-06T22:05:20.114Z,20.20
2018-09-06T22:07:47.139Z,26.43
2018-09-06T22:10:14.475Z,22.23
2018-09-06T22:12:41.481Z,22.97
2018-09-06T22:15:08.421Z,27.90
2018-09-06T22:17:35.498Z,21.13
2018-09-06T22:20:02.505Z,21.17
2018-09-06T22:22:29.534Z,24.53
2018-09-06T22:24:56.904Z,24.23
2018-09-06T22:27:23.858Z,22.17
2018-09-06T22:29:51.898Z,20.83
2018-09-06T22:35:09.508Z,23.37
2018-09-06T22:37:36.549Z,25.63
2018-09-06T22:40:03.626Z,21.63
2018-09-06T22:53:54.337Z,21.77
2018-09-06T22:59:12.861Z,24.87
2018-09-06T23:01:39.842Z,24.20
2018-09-06T23:04:06.850Z,22.47
2018-09-06T23:06:34.185Z,23.60
2018-09-06T23:09:01.116Z,25.40
2018-09-06T23:11:28.114Z,25.73
2018-09-06T23:13:55.100Z,23.03
2018-09-06T23:16:22.021Z,26.57
2018-09-06T23:18:49.085Z,32.53
2018-09-06T23:21:16.430Z,25.13
2018-09-06T23:23:43.386Z,29.50
2018-09-06T23:26:10.377Z,23.03
2018-09-06T23:28:37.640Z,26.03
2018-09-06T23:31:04.758Z,29.73
2018-09-06T23:33:31.718Z,25.50
2018-09-06T23:35:58.912Z,31.40
2018-09-06T23:38:25.914Z,27.50
2018-09-06T23:40:53.303Z,25.47
2018-09-06T23:43:21.440Z,22.40
2018-09-06T23:45:51.640Z,26.93
2018-09-06T23:48:19.406Z,24.60
2018-09-06T23:50:46.781Z,29.53
2018-09-06T23:53:13.846Z,27.50
2018-09-06T23:55:41.010Z,23.10
2018-09-06T23:58:08.394Z,25.10
